createdAt,value
2023-03-10T14:29:00.207Z,910.00
2023-03-10T14:31:00.304Z,903.00
2023-03-10T14:32:00.212Z,906.00
2023-03-10T14:33:00.300Z,911.00
2023-03-10T14:34:00.192Z,901.00
2023-03-10T14:48:00.187Z,862.00
2023-03-10T14:53:59.964Z,840.00
2023-03-10T14:54:59.952Z,844.00
2023-03-10T14:55:59.956Z,840.00
2023-03-10T14:56:59.938Z,841.00
2023-03-10T14:57:59.900Z,830.00
2023-03-10T14:58:59.898Z,825.00
2023-03-10T14:59:59.878Z,838.00
2023-03-10T15:00:59.880Z,823.00
2023-03-10T15:01:59.920Z,822.00
2023-03-10T15:02:59.853Z,822.00
2023-03-10T15:03:59.825Z,824.00
2023-03-10T15:04:59.867Z,810.00
2023-03-10T15:05:59.780Z,824.00
2023-03-10T15:06:59.784Z,820.00
2023-03-10T15:07:59.762Z,809.00
2023-03-10T15:08:59.742Z,814.00
2023-03-10T15:10:10.658Z,810.00
2023-03-10T15:11:00.708Z,811.00
2023-03-10T15:11:59.712Z,811.00
2023-03-10T15:12:59.688Z,814.00
2023-03-10T15:13:59.667Z,812.00
2023-03-10T15:14:59.706Z,812.00
2023-03-10T15:15:59.734Z,811.00
2023-03-10T15:16:59.623Z,812.00
2023-03-10T15:17:59.604Z,801.00
2023-03-10T15:18:59.592Z,809.00
2023-03-10T15:19:59.575Z,803.00
2023-03-10T15:20:59.565Z,796.00
2023-03-10T15:21:59.559Z,804.00
2023-03-10T15:22:59.535Z,798.00
2023-03-10T15:23:59.514Z,795.00
2023-03-10T15:24:59.566Z,801.00
2023-03-10T15:25:59.495Z,791.00
2023-03-10T15:26:59.490Z,794.00
2023-03-10T15:27:59.443Z,789.00
2023-03-10T15:28:59.438Z,789.00
2023-03-10T15:29:59.402Z,787.00
2023-03-10T15:30:59.452Z,781.00
2023-03-10T15:31:59.391Z,796.00
2023-03-10T15:32:59.372Z,788.00
2023-03-10T15:33:59.349Z,786.00
2023-03-10T15:34:59.323Z,785.00
2023-03-10T15:35:59.317Z,789.00
2023-03-10T15:36:59.293Z,771.00
2023-03-10T15:37:59.283Z,778.00
2023-03-10T15:38:59.291Z,777.00
2023-03-10T15:39:59.281Z,785.00
2023-03-10T15:40:59.245Z,773.00
2023-03-10T15:41:59.267Z,770.00
2023-03-10T15:42:59.463Z,778.00
2023-03-10T15:43:59.161Z,773.00
2023-03-10T15:44:59.156Z,772.00
2023-03-10T15:45:59.136Z,769.00
2023-03-10T15:46:59.353Z,774.00
2023-03-10T15:47:59.130Z,775.00
2023-03-10T15:48:59.081Z,758.00
2023-03-10T15:49:59.072Z,769.00
2023-03-10T15:50:59.067Z,768.00
2023-03-10T15:51:59.080Z,762.00
2023-03-10T15:52:59.076Z,756.00
2023-03-10T15:53:59.076Z,758.00
2023-03-10T15:54:59.085Z,764.00
2023-03-10T15:55:59.078Z,766.00
2023-03-10T15:56:59.075Z,759.00
2023-03-10T15:57:59.075Z,759.00
2023-03-10T15:58:59.073Z,754.00
2023-03-10T15:59:59.074Z,751.00
2023-03-10T16:00:59.078Z,755.00
2023-03-10T16:01:59.129Z,756.00
2023-03-10T16:02:59.073Z,754.00
2023-03-10T16:03:59.976Z,752.00
2023-03-10T16:04:59.109Z,751.00
2023-03-10T16:05:59.085Z,745.00
2023-03-10T16:06:59.093Z,749.00
2023-03-10T16:07:59.099Z,744.00
2023-03-10T16:08:59.091Z,743.00
2023-03-10T16:09:59.104Z,748.00
2023-03-10T16:10:59.119Z,746.00
2023-03-10T16:11:59.109Z,739.00
2023-03-10T16:12:59.125Z,748.00
2023-03-10T16:13:59.124Z,738.00
2023-03-10T16:14:59.130Z,735.00
2023-03-10T16:15:59.165Z,735.00
2023-03-10T16:16:59.153Z,733.00
2023-03-10T16:17:59.158Z,736.00
2023-03-10T16:18:59.163Z,725.00
2023-03-10T16:19:59.173Z,731.00
2023-03-10T16:20:59.174Z,724.00
2023-03-10T16:21:59.205Z,725.00
2023-03-10T16:22:59.193Z,717.00
2023-03-10T16:23:59.240Z,723.00
2023-03-10T16:24:59.235Z,720.00
2023-03-10T16:25:59.214Z,716.00
2023-03-10T16:26:59.211Z,708.00
2023-03-10T16:27:59.230Z,720.00
2023-03-10T16:28:59.256Z,716.00
2023-03-10T16:29:59.285Z,712.00
2023-03-10T16:30:59.285Z,705.00
2023-03-10T16:31:59.372Z,715.00
2023-03-10T16:32:59.345Z,708.00
2023-03-10T16:33:59.293Z,708.00
2023-03-10T16:34:59.286Z,704.00
2023-03-10T16:35:59.380Z,702.00
2023-03-10T16:36:59.311Z,708.00
2023-03-10T16:37:59.329Z,698.00
2023-03-10T16:38:59.339Z,703.00
2023-03-10T16:39:59.348Z,703.00
2023-03-10T16:40:59.415Z,692.00
2023-03-10T16:41:59.356Z,707.00
2023-03-10T16:42:59.399Z,700.00
2023-03-10T16:43:59.373Z,698.00
2023-03-10T16:44:59.388Z,694.00
2023-03-10T16:45:59.509Z,705.00
2023-03-10T16:46:59.462Z,691.00
2023-03-10T16:47:59.426Z,693.00
2023-03-10T16:48:59.422Z,694.00
2023-03-10T16:49:59.445Z,692.00
2023-03-10T16:50:59.440Z,684.00
2023-03-10T16:51:59.450Z,694.00
2023-03-10T16:52:59.446Z,683.00
2023-03-10T16:53:59.478Z,693.00
2023-03-10T16:54:59.478Z,677.00
2023-03-10T16:55:59.482Z,676.00
2023-03-10T16:56:59.490Z,673.00
2023-03-10T16:57:59.495Z,673.00
2023-03-10T16:58:59.518Z,665.00
2023-03-10T16:59:59.535Z,674.00
2023-03-10T17:00:59.564Z,673.00
2023-03-10T17:01:59.541Z,664.00
2023-03-10T17:02:59.554Z,666.00
2023-03-10T17:03:59.671Z,666.00
2023-03-10T17:04:59.565Z,667.00
2023-03-10T17:05:59.577Z,664.00
2023-03-10T17:06:59.583Z,663.00
2023-03-10T17:07:59.604Z,660.00
2023-03-10T17:08:59.610Z,662.00
2023-03-10T17:09:59.621Z,659.00
2023-03-10T17:10:59.637Z,662.00
2023-03-10T17:11:59.639Z,659.00
2023-03-10T17:12:59.654Z,659.00
2023-03-10T17:13:59.700Z,658.00
2023-03-10T17:14:59.710Z,656.00
2023-03-10T17:15:59.696Z,663.00
2023-03-10T17:17:00.646Z,659.00
2023-03-10T17:17:59.748Z,656.00
2023-03-10T17:18:59.743Z,657.00
2023-03-10T17:19:59.743Z,656.00
2023-03-10T17:20:59.748Z,661.00
2023-03-10T17:21:59.778Z,659.00
2023-03-10T17:22:59.784Z,658.00
2023-03-10T17:23:59.798Z,656.00
2023-03-10T17:24:59.815Z,655.00
2023-03-10T17:25:59.823Z,653.00
2023-03-10T17:27:00.510Z,654.00
2023-03-10T17:27:59.853Z,653.00
2023-03-10T17:28:59.875Z,650.00
2023-03-10T17:29:59.953Z,653.00
2023-03-10T17:30:59.922Z,653.00
2023-03-10T17:31:59.944Z,652.00
2023-03-10T17:33:00.003Z,650.00
2023-03-10T17:33:59.959Z,653.00
2023-03-10T17:34:59.980Z,650.00
2023-03-10T17:36:00.016Z,646.00
2023-03-10T17:37:00.011Z,647.00
2023-03-10T17:38:00.035Z,649.00
2023-03-10T17:39:00.043Z,649.00
2023-03-10T17:40:00.143Z,648.00
2023-03-10T17:41:00.099Z,648.00
2023-03-10T17:42:00.169Z,648.00
2023-03-10T17:43:13.191Z,647.00
2023-03-10T17:45:00.334Z,648.00
2023-03-10T17:46:00.130Z,649.00
2023-03-10T17:47:00.055Z,648.00
2023-03-10T17:48:00.038Z,648.00
2023-03-10T17:49:01.014Z,646.00
2023-03-10T17:50:00.076Z,646.00
2023-03-10T17:51:00.005Z,646.00
2023-03-10T17:51:59.975Z,648.00
2023-03-10T17:52:59.962Z,647.00
2023-03-10T17:53:59.962Z,644.00
2023-03-10T17:54:59.944Z,644.00
2023-03-10T17:55:59.933Z,640.00
2023-03-10T17:56:59.895Z,643.00
2023-03-10T17:57:59.885Z,645.00
2023-03-10T17:58:59.882Z,645.00
2023-03-10T17:59:59.893Z,641.00
2023-03-10T18:00:59.917Z,642.00
2023-03-10T18:02:00.017Z,640.00
2023-03-10T18:03:00.070Z,640.00
2023-03-10T18:03:59.980Z,638.00
2023-03-10T18:04:59.982Z,635.00
2023-03-10T18:06:00.519Z,637.00
2023-03-10T18:07:00.130Z,636.00
2023-03-10T18:08:00.041Z,637.00
2023-03-10T18:09:00.092Z,631.00
2023-03-10T18:10:00.164Z,635.00
2023-03-10T18:11:00.123Z,635.00
2023-03-10T18:12:00.115Z,632.00
2023-03-10T18:13:00.169Z,634.00
2023-03-10T18:14:03.026Z,634.00
2023-03-10T18:15:00.176Z,634.00
2023-03-10T18:16:00.199Z,631.00
2023-03-10T18:17:00.117Z,630.00
2023-03-10T18:18:00.136Z,628.00
2023-03-10T18:19:00.122Z,633.00
2023-03-10T18:42:59.793Z,605.00
2023-03-10T18:43:59.785Z,610.00
2023-03-10T18:44:59.766Z,608.00
2023-03-10T18:45:59.795Z,606.00
2023-03-10T18:46:59.777Z,606.00
2023-03-10T18:47:59.747Z,607.00
2023-03-10T18:48:59.741Z,604.00
2023-03-10T18:49:59.810Z,605.00
2023-03-10T18:50:59.806Z,601.00
2023-03-10T18:51:59.777Z,603.00
2023-03-10T18:53:59.686Z,600.00
2023-03-10T18:54:59.681Z,599.00
2023-03-10T18:55:59.693Z,600.00
2023-03-10T18:56:59.661Z,601.00
2023-03-10T18:57:59.678Z,598.00
2023-03-10T19:13:59.589Z,586.00
2023-03-10T19:18:59.726Z,582.00
2023-03-10T19:20:59.784Z,582.00
2023-03-10T19:21:59.809Z,582.00
2023-03-10T19:22:59.837Z,580.00
2023-03-10T19:23:59.883Z,581.00
2023-03-10T19:25:59.926Z,579.00
2023-03-10T20:32:02.321Z,532.00
2023-03-10T20:37:02.376Z,533.00
2023-03-10T20:38:02.461Z,527.00
2023-03-10T20:39:02.455Z,530.00
2023-03-10T20:40:02.504Z,528.00
2023-03-10T20:41:02.504Z,528.00
2023-03-10T20:42:02.566Z,525.00
2023-03-10T20:43:02.584Z,525.00
2023-03-10T20:44:02.679Z,525.00
2023-03-10T20:45:02.675Z,525.00
2023-03-10T20:46:02.739Z,527.00
2023-03-10T20:47:02.768Z,527.00
2023-03-10T20:48:02.749Z,524.00
2023-03-10T20:49:02.790Z,527.00
2023-03-10T20:50:02.815Z,525.00
2023-03-10T20:52:02.893Z,526.00
2023-03-10T20:53:02.941Z,524.00
2023-03-10T20:54:02.962Z,523.00
2023-03-10T20:55:03.025Z,522.00
2023-03-10T20:56:03.043Z,522.00
2023-03-10T20:57:03.068Z,521.00
2023-03-10T20:58:03.111Z,519.00
2023-03-10T20:59:03.159Z,519.00
2023-03-10T21:00:03.164Z,519.00
2023-03-10T21:01:03.282Z,522.00
2023-03-10T21:02:03.231Z,521.00
2023-03-10T21:03:03.270Z,517.00
2023-03-10T21:04:03.369Z,518.00
2023-03-10T21:05:03.327Z,517.00
2023-03-10T21:06:03.376Z,517.00
2023-03-10T21:07:03.401Z,518.00
2023-03-10T21:08:03.446Z,516.00
2023-03-10T21:09:03.478Z,513.00
2023-03-10T21:10:03.594Z,511.00
2023-03-10T21:11:03.568Z,515.00
2023-03-10T21:12:03.590Z,513.00
2023-03-10T21:13:03.675Z,512.00
2023-03-10T21:14:03.679Z,509.00
2023-03-10T22:50:07.778Z,506.00
2023-03-10T22:52:07.875Z,503.00
2023-03-10T22:53:07.928Z,510.00
2023-03-10T22:54:07.981Z,503.00
2023-03-10T22:55:08.034Z,500.00
2023-03-10T22:56:08.082Z,508.00
2023-03-10T22:57:08.121Z,504.00
2023-03-10T22:58:08.180Z,508.00
2023-03-10T22:59:08.220Z,504.00
2023-03-10T23:00:08.284Z,504.00
2023-03-10T23:01:08.364Z,504.00
2023-03-10T23:02:08.412Z,504.00
2023-03-10T23:03:08.493Z,504.00
2023-03-10T23:04:08.483Z,505.00
2023-03-10T23:05:08.530Z,503.00
2023-03-10T23:06:08.584Z,500.00
2023-03-10T23:07:08.641Z,504.00
2023-03-10T23:08:08.720Z,504.00
2023-03-10T23:09:10.729Z,502.00
2023-03-10T23:10:08.798Z,504.00
2023-03-10T23:11:08.843Z,500.00
2023-03-10T23:12:08.907Z,500.00
2023-03-10T23:13:08.953Z,505.00
2023-03-10T23:14:09.006Z,504.00
2023-03-10T23:15:15.340Z,506.00
2023-03-10T23:16:10.072Z,506.00
2023-03-10T23:17:09.029Z,505.00
2023-03-10T23:18:09.012Z,506.00
2023-03-10T23:19:09.021Z,502.00
2023-03-10T23:20:08.985Z,503.00
2023-03-10T23:21:08.979Z,502.00
2023-03-10T23:22:08.955Z,500.00
2023-03-10T23:23:08.937Z,502.00
2023-03-10T23:24:08.938Z,506.00
2023-03-10T23:25:08.965Z,502.00
2023-03-10T23:26:09.008Z,500.00
2023-03-10T23:27:09.060Z,502.00
2023-03-10T23:28:09.109Z,504.00
2023-03-10T23:29:09.177Z,502.00
2023-03-10T23:30:09.206Z,503.00
2023-03-10T23:31:09.301Z,506.00
2023-03-10T23:32:09.296Z,502.00
2023-03-10T23:33:09.340Z,508.00
2023-03-10T23:34:09.384Z,504.00
2023-03-10T23:35:09.443Z,500.00
2023-03-10T23:36:09.535Z,508.00
2023-03-10T23:37:09.542Z,508.00
2023-03-10T23:38:09.589Z,505.00
2023-03-10T23:39:09.656Z,502.00
2023-03-10T23:40:09.700Z,502.00
2023-03-10T23:41:09.738Z,505.00
2023-03-10T23:42:09.777Z,504.00
2023-03-10T23:43:09.836Z,505.00
2023-03-10T23:44:09.957Z,509.00
2023-03-10T23:45:09.938Z,505.00
2023-03-10T23:46:10.164Z,507.00
2023-03-10T23:47:10.049Z,508.00
2023-03-10T23:48:10.081Z,506.00
2023-03-10T23:49:10.126Z,503.00
2023-03-10T23:50:10.196Z,505.00
2023-03-10T23:51:10.226Z,506.00
2023-03-10T23:52:10.283Z,508.00
2023-03-10T23:53:10.342Z,504.00
2023-03-10T23:54:10.395Z,503.00
2023-03-10T23:55:10.442Z,505.00
2023-03-10T23:56:10.501Z,504.00
2023-03-10T23:57:10.523Z,503.00
2023-03-10T23:58:10.580Z,505.00
2023-03-10T23:59:10.591Z,508.00
